Un Karadeniz — TCTD3 — position and weather

sailwx.info

Track history (hours):
 
Tides and Currents Weather Stations Pressure Air Temp Water Temp Dewpoint Dewpoint Depression Visibility Wind Speed Wind Dir Waves Ship Positions

Un Karadeniz

Last reported at 2017-Apr-30 22:30 UTC. Time now 2017-Apr-30 22:44 UTC.
Position N 44°54' E 013°19'.

Length 193 m; draft 6.8 m.

Type: Ship (hazmat cat A). MMSI: 271002571.

Date/timePositionNaut miles runAvg speedWind from/ knotsBaromVisibWave heightAir tempDewpointWater temp
2017-Apr-30 22:30N 44°54' E 013°19'919.0
2017-Apr-30 22:01N 45°02' E 013°12'1019.0
2017-Apr-30 21:30N 45°11' E 013°06'919.0
2017-Apr-30 21:01N 45°20' E 013°03'918.0
2017-Apr-30 20:30N 45°27' E 013°11'918.7
2017-Apr-30 20:01N 45°33' E 013°21'918.8
2017-Apr-30 19:31N 45°37' E 013°33'816.7
2017-Apr-30 19:00N 45°39' E 013°44'0 0.7
2017-Apr-30 18:27N 45°39' E 013°45'0 0.0
2017-Apr-30 18:00N 45°39' E 013°45'0 0.0
2017-Apr-30 17:30N 45°39' E 013°45'0 0.0
2017-Apr-30 17:00N 45°39' E 013°45'0 0.0
2017-Apr-30 16:30N 45°39' E 013°45'0 0.0
2017-Apr-30 16:00N 45°39' E 013°45'0 0.0
2017-Apr-30 15:30N 45°39' E 013°45'0 0.0
2017-Apr-30 15:00N 45°39' E 013°45'0 0.0
2017-Apr-30 14:30N 45°39' E 013°45'0 0.0
2017-Apr-30 13:30N 45°39' E 013°45'0 0.0
2017-Apr-30 13:00N 45°39' E 013°45'0 0.0
2017-Apr-30 12:30N 45°39' E 013°45'0 0.0
2017-Apr-30 12:00N 45°39' E 013°45'0 0.0
2017-Apr-30 11:30N 45°39' E 013°45'0 0.0
2017-Apr-30 11:00N 45°39' E 013°45'0 0.0
2017-Apr-30 10:30N 45°39' E 013°45'0 0.0
2017-Apr-30 10:00N 45°39' E 013°45'0 0.0
2017-Apr-30 09:30N 45°39' E 013°45'0 0.0
2017-Apr-30 09:00N 45°39' E 013°45'0 0.0
2017-Apr-30 08:30N 45°39' E 013°45'0 0.0
2017-Apr-30 08:00N 45°39' E 013°45'0 0.0
2017-Apr-30 07:30N 45°39' E 013°45'4 8.5
2017-Apr-30 07:01N 45°39' E 013°39'918.4
2017-Apr-30 06:30N 45°33' E 013°28'918.3
2017-Apr-30 06:01N 45°26' E 013°19'918.6
2017-Apr-30 05:31N 45°18' E 013°14'1019.4
2017-Apr-30 05:00N 45°09' E 013°18'1019.3
2017-Apr-30 04:31N 44°60' E 013°23'1019.2
2017-Apr-30 04:00N 44°51' E 013°30'1019.3
2017-Apr-30 03:30N 44°43' E 013°37'1019.2
2017-Apr-30 03:01N 44°35' E 013°45'1019.3
2017-Apr-30 02:30N 44°27' E 013°52'1019.2
2017-Apr-30 02:01N 44°19' E 013°59'1519.6
2017-Apr-30 01:13N 44°06' E 014°11'34919.3
2017-Apr-29 07:08N 39°41' E 019°16'27018.2
2017-Apr-28 16:17N 36°25' E 023°12'619.0
2017-Apr-28 15:58N 36°26' E 023°19'919.2
2017-Apr-28 15:31N 36°26' E 023°30'1019.2
2017-Apr-28 15:00N 36°27' E 023°42'1919.4
2017-Apr-28 14:00N 36°28' E 024°06'27719.1
2017-Apr-27 23:33N 36°05' E 029°48'119.9
2017-Apr-27 23:30N 36°05' E 029°49'21 0.5
2017-Apr-26 05:16N 36°03' E 030°15'518.6
2017-Apr-26 04:59N 36°03' E 030°09'88517.2
2017-Apr-24 01:33N 44°08' E 014°02'219.1
2017-Apr-24 01:26N 44°10' E 014°00'819.1
2017-Apr-24 01:00N 44°17' E 013°54'919.1
2017-Apr-24 00:30N 44°25' E 013°46'1019.1
2017-Apr-24 00:00N 44°33' E 013°39'1019.1
2017-Apr-23 23:30N 44°41' E 013°32'1019.3
2017-Apr-23 23:00N 44°49' E 013°24'1019.3
2017-Apr-23 22:30N 44°57' E 013°17'1019.5
2017-Apr-23 22:00N 45°06' E 013°10'1019.1
2017-Apr-23 21:30N 45°14' E 013°04'917.9
2017-Apr-23 21:00N 45°23' E 013°05'918.9
2017-Apr-23 20:30N 45°30' E 013°15'1019.0
2017-Apr-23 20:00N 45°35' E 013°26'1019.0
2017-Apr-23 19:30N 45°39' E 013°38'5 9.3
2017-Apr-23 19:00N 45°39' E 013°45'0 0.0
2017-Apr-23 18:30N 45°39' E 013°45'0 0.0
2017-Apr-23 18:00N 45°39' E 013°45'0 0.0
2017-Apr-23 17:30N 45°39' E 013°45'0 0.0
2017-Apr-23 17:00N 45°39' E 013°45'0 0.0
2017-Apr-23 16:30N 45°39' E 013°45'0 0.0
2017-Apr-23 16:00N 45°39' E 013°45'0 0.0
2017-Apr-23 15:30N 45°39' E 013°45'0 0.0
2017-Apr-23 15:00N 45°39' E 013°45'0 0.0
2017-Apr-23 14:00N 45°39' E 013°45'0 0.0
2017-Apr-23 13:30N 45°39' E 013°45'0 0.0
2017-Apr-23 13:00N 45°39' E 013°45'0 0.0
2017-Apr-23 12:30N 45°39' E 013°45'0 0.0
2017-Apr-23 12:00N 45°39' E 013°45'0 0.0
2017-Apr-23 11:30N 45°39' E 013°45'0 0.0
2017-Apr-23 11:00N 45°39' E 013°45'0 0.0
2017-Apr-23 10:30N 45°39' E 013°45'0 0.0
2017-Apr-23 10:00N 45°39' E 013°45'0 0.0
2017-Apr-23 09:30N 45°39' E 013°45'0 0.0
2017-Apr-23 09:00N 45°39' E 013°45'0 0.0
2017-Apr-23 08:30N 45°39' E 013°45'0 0.0
2017-Apr-23 08:00N 45°39' E 013°45'0 0.0
2017-Apr-23 07:30N 45°39' E 013°45'0 0.0
2017-Apr-23 07:00N 45°39' E 013°45'0 0.0
2017-Apr-23 06:30N 45°39' E 013°45'4 7.2
2017-Apr-23 06:00N 45°39' E 013°40'918.9
2017-Apr-23 05:30N 45°33' E 013°29'1019.0
2017-Apr-23 05:00N 45°27' E 013°19'917.7
2017-Apr-23 04:30N 45°19' E 013°14'1019.5
2017-Apr-23 04:00N 45°09' E 013°17'1019.6
2017-Apr-23 03:30N 45°00' E 013°22'1019.5
2017-Apr-23 03:00N 44°52' E 013°29'1019.6
2017-Apr-23 02:30N 44°44' E 013°36'1019.6
2017-Apr-23 02:00N 44°35' E 013°44'1019.7
2017-Apr-23 01:30N 44°27' E 013°51'1019.5
2017-Apr-23 01:00N 44°19' E 013°59'1019.4
2017-Apr-23 00:30N 44°11' E 014°06'1019.3
2017-Apr-23 00:00N 44°04' E 014°16'6019.3
2017-Apr-22 20:54N 43°20' E 015°13'  
Track history (hours):
 
Tides and Currents Weather Stations Pressure Air Temp Water Temp Dewpoint Dewpoint Depression Visibility Wind Speed Wind Dir Waves Ship Positions

Un Karadeniz

Last reported at 2017-Apr-30 22:30 UTC. Time now 2017-Apr-30 22:44 UTC.
Position N 44°54' E 013°19'.

Length 193 m; draft 6.8 m.

Type: Ship (hazmat cat A). MMSI: 271002571.

Date/timePositionNaut miles runAvg speedWind from/ knotsBaromVisibWave heightAir tempDewpointWater temp
2017-Apr-30 22:30N 44°54' E 013°19'919.0
2017-Apr-30 22:01N 45°02' E 013°12'1019.0
2017-Apr-30 21:30N 45°11' E 013°06'919.0
2017-Apr-30 21:01N 45°20' E 013°03'918.0
2017-Apr-30 20:30N 45°27' E 013°11'918.7
2017-Apr-30 20:01N 45°33' E 013°21'918.8
2017-Apr-30 19:31N 45°37' E 013°33'816.7
2017-Apr-30 19:00N 45°39' E 013°44'0 0.7
2017-Apr-30 18:27N 45°39' E 013°45'0 0.0
2017-Apr-30 18:00N 45°39' E 013°45'0 0.0
2017-Apr-30 17:30N 45°39' E 013°45'0 0.0
2017-Apr-30 17:00N 45°39' E 013°45'0 0.0
2017-Apr-30 16:30N 45°39' E 013°45'0 0.0
2017-Apr-30 16:00N 45°39' E 013°45'0 0.0
2017-Apr-30 15:30N 45°39' E 013°45'0 0.0
2017-Apr-30 15:00N 45°39' E 013°45'0 0.0
2017-Apr-30 14:30N 45°39' E 013°45'0 0.0
2017-Apr-30 13:30N 45°39' E 013°45'0 0.0
2017-Apr-30 13:00N 45°39' E 013°45'0 0.0
2017-Apr-30 12:30N 45°39' E 013°45'0 0.0
2017-Apr-30 12:00N 45°39' E 013°45'0 0.0
2017-Apr-30 11:30N 45°39' E 013°45'0 0.0
2017-Apr-30 11:00N 45°39' E 013°45'0 0.0
2017-Apr-30 10:30N 45°39' E 013°45'0 0.0
2017-Apr-30 10:00N 45°39' E 013°45'0 0.0
2017-Apr-30 09:30N 45°39' E 013°45'0 0.0
2017-Apr-30 09:00N 45°39' E 013°45'0 0.0
2017-Apr-30 08:30N 45°39' E 013°45'0 0.0
2017-Apr-30 08:00N 45°39' E 013°45'0 0.0
2017-Apr-30 07:30N 45°39' E 013°45'4 8.5
2017-Apr-30 07:01N 45°39' E 013°39'918.4
2017-Apr-30 06:30N 45°33' E 013°28'918.3
2017-Apr-30 06:01N 45°26' E 013°19'918.6
2017-Apr-30 05:31N 45°18' E 013°14'1019.4
2017-Apr-30 05:00N 45°09' E 013°18'1019.3
2017-Apr-30 04:31N 44°60' E 013°23'1019.2
2017-Apr-30 04:00N 44°51' E 013°30'1019.3
2017-Apr-30 03:30N 44°43' E 013°37'1019.2
2017-Apr-30 03:01N 44°35' E 013°45'1019.3
2017-Apr-30 02:30N 44°27' E 013°52'1019.2
2017-Apr-30 02:01N 44°19' E 013°59'1519.6
2017-Apr-30 01:13N 44°06' E 014°11'34919.3
2017-Apr-29 07:08N 39°41' E 019°16'27018.2
2017-Apr-28 16:17N 36°25' E 023°12'619.0
2017-Apr-28 15:58N 36°26' E 023°19'919.2
2017-Apr-28 15:31N 36°26' E 023°30'1019.2
2017-Apr-28 15:00N 36°27' E 023°42'1919.4
2017-Apr-28 14:00N 36°28' E 024°06'27719.1
2017-Apr-27 23:33N 36°05' E 029°48'119.9
2017-Apr-27 23:30N 36°05' E 029°49'21 0.5
2017-Apr-26 05:16N 36°03' E 030°15'518.6
2017-Apr-26 04:59N 36°03' E 030°09'88517.2
2017-Apr-24 01:33N 44°08' E 014°02'219.1
2017-Apr-24 01:26N 44°10' E 014°00'819.1
2017-Apr-24 01:00N 44°17' E 013°54'919.1
2017-Apr-24 00:30N 44°25' E 013°46'1019.1
2017-Apr-24 00:00N 44°33' E 013°39'1019.1
2017-Apr-23 23:30N 44°41' E 013°32'1019.3
2017-Apr-23 23:00N 44°49' E 013°24'1019.3
2017-Apr-23 22:30N 44°57' E 013°17'1019.5
2017-Apr-23 22:00N 45°06' E 013°10'1019.1
2017-Apr-23 21:30N 45°14' E 013°04'917.9
2017-Apr-23 21:00N 45°23' E 013°05'918.9
2017-Apr-23 20:30N 45°30' E 013°15'1019.0
2017-Apr-23 20:00N 45°35' E 013°26'1019.0
2017-Apr-23 19:30N 45°39' E 013°38'5 9.3
2017-Apr-23 19:00N 45°39' E 013°45'0 0.0
2017-Apr-23 18:30N 45°39' E 013°45'0 0.0
2017-Apr-23 18:00N 45°39' E 013°45'0 0.0
2017-Apr-23 17:30N 45°39' E 013°45'0 0.0
2017-Apr-23 17:00N 45°39' E 013°45'0 0.0
2017-Apr-23 16:30N 45°39' E 013°45'0 0.0
2017-Apr-23 16:00N 45°39' E 013°45'0 0.0
2017-Apr-23 15:30N 45°39' E 013°45'0 0.0
2017-Apr-23 15:00N 45°39' E 013°45'0 0.0
2017-Apr-23 14:00N 45°39' E 013°45'0 0.0
2017-Apr-23 13:30N 45°39' E 013°45'0 0.0
2017-Apr-23 13:00N 45°39' E 013°45'0 0.0
2017-Apr-23 12:30N 45°39' E 013°45'0 0.0
2017-Apr-23 12:00N 45°39' E 013°45'0 0.0
2017-Apr-23 11:30N 45°39' E 013°45'0 0.0
2017-Apr-23 11:00N 45°39' E 013°45'0 0.0
2017-Apr-23 10:30N 45°39' E 013°45'0 0.0
2017-Apr-23 10:00N 45°39' E 013°45'0 0.0
2017-Apr-23 09:30N 45°39' E 013°45'0 0.0
2017-Apr-23 09:00N 45°39' E 013°45'0 0.0
2017-Apr-23 08:30N 45°39' E 013°45'0 0.0
2017-Apr-23 08:00N 45°39' E 013°45'0 0.0
2017-Apr-23 07:30N 45°39' E 013°45'0 0.0
2017-Apr-23 07:00N 45°39' E 013°45'0 0.0
2017-Apr-23 06:30N 45°39' E 013°45'4 7.2
2017-Apr-23 06:00N 45°39' E 013°40'918.9
2017-Apr-23 05:30N 45°33' E 013°29'1019.0
2017-Apr-23 05:00N 45°27' E 013°19'917.7
2017-Apr-23 04:30N 45°19' E 013°14'1019.5
2017-Apr-23 04:00N 45°09' E 013°17'1019.6
2017-Apr-23 03:30N 45°00' E 013°22'1019.5
2017-Apr-23 03:00N 44°52' E 013°29'1019.6
2017-Apr-23 02:30N 44°44' E 013°36'1019.6
2017-Apr-23 02:00N 44°35' E 013°44'1019.7
2017-Apr-23 01:30N 44°27' E 013°51'1019.5
2017-Apr-23 01:00N 44°19' E 013°59'1019.4
2017-Apr-23 00:30N 44°11' E 014°06'1019.3
2017-Apr-23 00:00N 44°04' E 014°16'6019.3
2017-Apr-22 20:54N 43°20' E 015°13'  

Dump ship's entire track history